sensor_id;sensor_type;location;lat;lon;timestamp;temperature;humidity
48998;DHT22;34807;51.456;7.244;2023-03-01T00:00:10;1.60;95.60
48998;DHT22;34807;51.456;7.244;2023-03-01T00:02:36;1.50;95.60
48998;DHT22;34807;51.456;7.244;2023-03-01T00:05:02;1.50;95.60
48998;DHT22;34807;51.456;7.244;2023-03-01T00:07:27;1.50;95.50
48998;DHT22;34807;51.456;7.244;2023-03-01T00:09:53;1.60;95.50
48998;DHT22;34807;51.456;7.244;2023-03-01T00:12:19;1.50;95.50
48998;DHT22;34807;51.456;7.244;2023-03-01T00:14:45;1.50;95.50
48998;DHT22;34807;51.456;7.244;2023-03-01T00:17:10;1.50;95.50
48998;DHT22;34807;51.456;7.244;2023-03-01T00:19:36;1.40;95.50
48998;DHT22;34807;51.456;7.244;2023-03-01T00:22:01;1.40;95.50
48998;DHT22;34807;51.456;7.244;2023-03-01T00:24:27;1.50;95.50
48998;DHT22;34807;51.456;7.244;2023-03-01T00:26:53;1.40;95.50
48998;DHT22;34807;51.456;7.244;2023-03-01T00:29:21;1.40;95.50
48998;DHT22;34807;51.456;7.244;2023-03-01T00:31:46;1.40;95.50
48998;DHT22;34807;51.456;7.244;2023-03-01T00:34:12;1.40;95.50
48998;DHT22;34807;51.456;7.244;2023-03-01T00:36:37;1.40;95.50
48998;DHT22;34807;51.456;7.244;2023-03-01T00:39:04;1.40;95.50
48998;DHT22;34807;51.456;7.244;2023-03-01T00:41:30;1.40;95.50
48998;DHT22;34807;51.456;7.244;2023-03-01T00:43:55;1.40;95.50
48998;DHT22;34807;51.456;7.244;2023-03-01T00:46:24;1.30;95.50
48998;DHT22;34807;51.456;7.244;2023-03-01T00:48:50;1.30;95.40
48998;DHT22;34807;51.456;7.244;2023-03-01T00:51:20;1.30;95.50
48998;DHT22;34807;51.456;7.244;2023-03-01T00:53:46;1.30;95.50
48998;DHT22;34807;51.456;7.244;2023-03-01T00:56:12;1.30;95.50
48998;DHT22;34807;51.456;7.244;2023-03-01T00:58:38;1.30;95.50
48998;DHT22;34807;51.456;7.244;2023-03-01T01:01:11;1.30;95.50
48998;DHT22;34807;51.456;7.244;2023-03-01T01:03:52;1.30;95.50
48998;DHT22;34807;51.456;7.244;2023-03-01T01:08:47;1.20;95.40
48998;DHT22;34807;51.456;7.244;2023-03-01T01:11:13;1.20;95.40
48998;DHT22;34807;51.456;7.244;2023-03-01T01:13:39;1.20;95.40
48998;DHT22;34807;51.456;7.244;2023-03-01T01:16:04;1.20;95.40
48998;DHT22;34807;51.456;7.244;2023-03-01T01:18:30;1.20;95.40
48998;DHT22;34807;51.456;7.244;2023-03-01T01:20:56;1.20;95.40
48998;DHT22;34807;51.456;7.244;2023-03-01T01:23:21;1.20;95.40
48998;DHT22;34807;51.456;7.244;2023-03-01T01:25:46;1.20;95.40
48998;DHT22;34807;51.456;7.244;2023-03-01T01:28:12;1.20;95.40
48998;DHT22;34807;51.456;7.244;2023-03-01T01:30:37;1.20;95.40
48998;DHT22;34807;51.456;7.244;2023-03-01T01:33:03;1.20;95.40
48998;DHT22;34807;51.456;7.244;2023-03-01T01:35:28;1.20;95.40
48998;DHT22;34807;51.456;7.244;2023-03-01T01:37:54;1.20;95.40
48998;DHT22;34807;51.456;7.244;2023-03-01T01:40:19;1.10;95.60
48998;DHT22;34807;51.456;7.244;2023-03-01T01:42:45;1.10;95.30
48998;DHT22;34807;51.456;7.244;2023-03-01T01:47:55;1.10;95.40
48998;DHT22;34807;51.456;7.244;2023-03-01T01:50:22;1.10;95.40
48998;DHT22;34807;51.456;7.244;2023-03-01T01:52:48;1.10;95.30
48998;DHT22;34807;51.456;7.244;2023-03-01T01:55:16;1.10;95.30
48998;DHT22;34807;51.456;7.244;2023-03-01T01:58:02;1.10;95.40
48998;DHT22;34807;51.456;7.244;2023-03-01T02:00:30;1.00;95.30
48998;DHT22;34807;51.456;7.244;2023-03-01T02:03:03;1.00;95.30
48998;DHT22;34807;51.456;7.244;2023-03-01T02:08:14;1.00;95.30
48998;DHT22;34807;51.456;7.244;2023-03-01T02:10:41;1.00;95.30
48998;DHT22;34807;51.456;7.244;2023-03-01T02:13:07;1.00;95.30
48998;DHT22;34807;51.456;7.244;2023-03-01T02:15:33;1.00;95.30
48998;DHT22;34807;51.456;7.244;2023-03-01T02:17:59;1.00;95.30
48998;DHT22;34807;51.456;7.244;2023-03-01T02:23:09;1.00;95.20
48998;DHT22;34807;51.456;7.244;2023-03-01T02:28:36;0.90;95.20
48998;DHT22;34807;51.456;7.244;2023-03-01T02:30:54;0.90;95.30
48998;DHT22;34807;51.456;7.244;2023-03-01T02:33:39;0.90;95.30
48998;DHT22;34807;51.456;7.244;2023-03-01T02:36:06;0.90;95.30
48998;DHT22;34807;51.456;7.244;2023-03-01T02:38:33;0.90;95.20
48998;DHT22;34807;51.456;7.244;2023-03-01T02:40:58;0.90;95.20
48998;DHT22;34807;51.456;7.244;2023-03-01T02:43:26;0.90;95.20
48998;DHT22;34807;51.456;7.244;2023-03-01T02:45:52;0.90;95.20
48998;DHT22;34807;51.456;7.244;2023-03-01T02:48:19;0.90;95.20
48998;DHT22;34807;51.456;7.244;2023-03-01T02:51:00;0.90;95.20
48998;DHT22;34807;51.456;7.244;2023-03-01T02:56:09;0.90;95.20
48998;DHT22;34807;51.456;7.244;2023-03-01T02:58:41;0.80;95.20
48998;DHT22;34807;51.456;7.244;2023-03-01T03:01:14;0.80;95.20
48998;DHT22;34807;51.456;7.244;2023-03-01T03:03:41;0.80;95.20
48998;DHT22;34807;51.456;7.244;2023-03-01T03:06:06;0.80;95.20
48998;DHT22;34807;51.456;7.244;2023-03-01T03:08:32;0.80;95.20
48998;DHT22;34807;51.456;7.244;2023-03-01T03:10:57;0.80;95.20
48998;DHT22;34807;51.456;7.244;2023-03-01T03:13:23;0.80;95.20
48998;DHT22;34807;51.456;7.244;2023-03-01T03:15:56;0.80;95.20
48998;DHT22;34807;51.456;7.244;2023-03-01T03:18:22;0.70;95.20
48998;DHT22;34807;51.456;7.244;2023-03-01T03:20:51;0.70;95.20
48998;DHT22;34807;51.456;7.244;2023-03-01T03:23:18;0.70;95.10
48998;DHT22;34807;51.456;7.244;2023-03-01T03:25:44;0.70;95.10
48998;DHT22;34807;51.456;7.244;2023-03-01T03:28:10;0.70;95.20
48998;DHT22;34807;51.456;7.244;2023-03-01T03:30:36;0.70;95.10
48998;DHT22;34807;51.456;7.244;2023-03-01T03:33:04;0.70;95.10
48998;DHT22;34807;51.456;7.244;2023-03-01T03:35:31;0.70;95.10
48998;DHT22;34807;51.456;7.244;2023-03-01T03:37:58;0.70;95.10
48998;DHT22;34807;51.456;7.244;2023-03-01T03:40:28;0.70;95.10
48998;DHT22;34807;51.456;7.244;2023-03-01T03:42:54;0.60;95.10
48998;DHT22;34807;51.456;7.244;2023-03-01T03:45:20;0.70;95.00
48998;DHT22;34807;51.456;7.244;2023-03-01T03:47:45;0.70;95.10
48998;DHT22;34807;51.456;7.244;2023-03-01T03:50:12;0.60;95.10
48998;DHT22;34807;51.456;7.244;2023-03-01T03:52:38;0.60;95.10
48998;DHT22;34807;51.456;7.244;2023-03-01T03:55:04;0.60;95.10
48998;DHT22;34807;51.456;7.244;2023-03-01T03:57:34;0.60;95.10
48998;DHT22;34807;51.456;7.244;2023-03-01T04:00:00;0.60;95.10
48998;DHT22;34807;51.456;7.244;2023-03-01T04:02:25;0.60;95.10
48998;DHT22;34807;51.456;7.244;2023-03-01T04:04:51;0.60;95.10
48998;DHT22;34807;51.456;7.244;2023-03-01T04:07:17;0.60;95.10
48998;DHT22;34807;51.456;7.244;2023-03-01T04:09:42;0.50;95.10
48998;DHT22;34807;51.456;7.244;2023-03-01T04:12:08;0.50;95.00
48998;DHT22;34807;51.456;7.244;2023-03-01T04:14:33;0.50;95.00
48998;DHT22;34807;51.456;7.244;2023-03-01T04:16:59;0.50;95.00
48998;DHT22;34807;51.456;7.244;2023-03-01T04:19:24;0.50;95.00
48998;DHT22;34807;51.456;7.244;2023-03-01T04:21:52;0.50;95.00
48998;DHT22;34807;51.456;7.244;2023-03-01T04:24:17;0.50;95.10
48998;DHT22;34807;51.456;7.244;2023-03-01T04:26:43;0.50;95.00
48998;DHT22;34807;51.456;7.244;2023-03-01T04:29:08;0.50;95.00
48998;DHT22;34807;51.456;7.244;2023-03-01T04:31:34;0.50;95.00
48998;DHT22;34807;51.456;7.244;2023-03-01T04:34:00;0.50;95.00
48998;DHT22;34807;51.456;7.244;2023-03-01T04:36:26;0.40;95.00
48998;DHT22;34807;51.456;7.244;2023-03-01T04:38:52;0.50;95.00
48998;DHT22;34807;51.456;7.244;2023-03-01T04:41:18;0.50;95.00
48998;DHT22;34807;51.456;7.244;2023-03-01T04:43:44;0.40;95.00
48998;DHT22;34807;51.456;7.244;2023-03-01T04:46:11;0.40;94.90
48998;DHT22;34807;51.456;7.244;2023-03-01T04:48:38;0.40;94.90
48998;DHT22;34807;51.456;7.244;2023-03-01T04:51:04;0.40;94.90
48998;DHT22;34807;51.456;7.244;2023-03-01T04:53:30;0.40;95.20
48998;DHT22;34807;51.456;7.244;2023-03-01T04:55:55;0.40;95.00
48998;DHT22;34807;51.456;7.244;2023-03-01T04:58:25;0.40;95.00
48998;DHT22;34807;51.456;7.244;2023-03-01T05:00:50;0.40;94.90
48998;DHT22;34807;51.456;7.244;2023-03-01T05:03:16;0.30;94.90
48998;DHT22;34807;51.456;7.244;2023-03-01T05:05:44;0.40;94.90
48998;DHT22;34807;51.456;7.244;2023-03-01T05:08:09;0.30;94.90
48998;DHT22;34807;51.456;7.244;2023-03-01T05:10:45;0.40;94.90
48998;DHT22;34807;51.456;7.244;2023-03-01T05:13:11;0.30;94.90
48998;DHT22;34807;51.456;7.244;2023-03-01T05:15:38;0.30;94.90
48998;DHT22;34807;51.456;7.244;2023-03-01T05:18:04;0.30;94.90
48998;DHT22;34807;51.456;7.244;2023-03-01T05:20:32;0.30;94.80
48998;DHT22;34807;51.456;7.244;2023-03-01T05:22:58;0.30;94.80
48998;DHT22;34807;51.456;7.244;2023-03-01T05:25:24;0.30;94.90
48998;DHT22;34807;51.456;7.244;2023-03-01T05:27:50;0.30;94.90
48998;DHT22;34807;51.456;7.244;2023-03-01T05:30:16;0.30;94.90
48998;DHT22;34807;51.456;7.244;2023-03-01T05:32:43;0.30;94.90
48998;DHT22;34807;51.456;7.244;2023-03-01T05:35:10;0.20;94.90
48998;DHT22;34807;51.456;7.244;2023-03-01T05:37:48;0.20;94.90
48998;DHT22;34807;51.456;7.244;2023-03-01T05:40:17;0.20;94.90
48998;DHT22;34807;51.456;7.244;2023-03-01T05:43:01;0.20;94.90
48998;DHT22;34807;51.456;7.244;2023-03-01T05:45:30;0.20;94.90
48998;DHT22;34807;51.456;7.244;2023-03-01T05:47:57;0.20;94.80
48998;DHT22;34807;51.456;7.244;2023-03-01T05:50:24;0.20;94.90
48998;DHT22;34807;51.456;7.244;2023-03-01T05:52:51;0.20;94.80
48998;DHT22;34807;51.456;7.244;2023-03-01T05:55:17;0.20;94.80
48998;DHT22;34807;51.456;7.244;2023-03-01T05:57:43;0.20;94.80
48998;DHT22;34807;51.456;7.244;2023-03-01T06:00:09;0.20;94.80
48998;DHT22;34807;51.456;7.244;2023-03-01T06:02:35;0.20;94.80
48998;DHT22;34807;51.456;7.244;2023-03-01T06:05:00;0.20;94.80
48998;DHT22;34807;51.456;7.244;2023-03-01T06:07:26;0.10;94.80
48998;DHT22;34807;51.456;7.244;2023-03-01T06:09:51;0.10;94.80
48998;DHT22;34807;51.456;7.244;2023-03-01T06:12:17;0.10;94.80
48998;DHT22;34807;51.456;7.244;2023-03-01T06:14:42;0.10;94.80
48998;DHT22;34807;51.456;7.244;2023-03-01T06:17:08;0.10;94.80
48998;DHT22;34807;51.456;7.244;2023-03-01T06:19:33;0.10;94.80
48998;DHT22;34807;51.456;7.244;2023-03-01T06:21:59;0.10;94.80
48998;DHT22;34807;51.456;7.244;2023-03-01T06:24:24;0.10;94.80
48998;DHT22;34807;51.456;7.244;2023-03-01T06:26:50;0.10;94.80
48998;DHT22;34807;51.456;7.244;2023-03-01T06:29:15;0.10;94.80
48998;DHT22;34807;51.456;7.244;2023-03-01T06:31:41;0.10;94.80
48998;DHT22;34807;51.456;7.244;2023-03-01T06:34:06;0.10;94.80
48998;DHT22;34807;51.456;7.244;2023-03-01T06:36:32;0.10;94.80
48998;DHT22;34807;51.456;7.244;2023-03-01T06:38:57;0.10;94.80
48998;DHT22;34807;51.456;7.244;2023-03-01T06:41:23;0.10;94.70
48998;DHT22;34807;51.456;7.244;2023-03-01T06:43:48;0.10;94.80
48998;DHT22;34807;51.456;7.244;2023-03-01T06:46:14;0.10;94.70
48998;DHT22;34807;51.456;7.244;2023-03-01T06:48:39;0.10;94.80
48998;DHT22;34807;51.456;7.244;2023-03-01T06:51:05;0.10;94.70
48998;DHT22;34807;51.456;7.244;2023-03-01T06:53:30;0.10;94.70
48998;DHT22;34807;51.456;7.244;2023-03-01T06:55:56;0.00;94.70
48998;DHT22;34807;51.456;7.244;2023-03-01T06:58:22;0.10;94.70
48998;DHT22;34807;51.456;7.244;2023-03-01T07:00:47;0.10;94.70
48998;DHT22;34807;51.456;7.244;2023-03-01T07:03:13;0.10;94.70
48998;DHT22;34807;51.456;7.244;2023-03-01T07:05:38;0.10;94.70
48998;DHT22;34807;51.456;7.244;2023-03-01T07:08:04;0.10;94.80
48998;DHT22;34807;51.456;7.244;2023-03-01T07:10:29;0.10;95.00
48998;DHT22;34807;51.456;7.244;2023-03-01T07:12:58;0.10;94.70
48998;DHT22;34807;51.456;7.244;2023-03-01T07:15:24;0.10;94.70
48998;DHT22;34807;51.456;7.244;2023-03-01T07:17:50;0.10;94.70
48998;DHT22;34807;51.456;7.244;2023-03-01T07:20:16;0.10;94.70
48998;DHT22;34807;51.456;7.244;2023-03-01T07:22:42;0.10;94.70
48998;DHT22;34807;51.456;7.244;2023-03-01T07:25:08;0.10;94.70
48998;DHT22;34807;51.456;7.244;2023-03-01T07:27:33;0.10;94.70
48998;DHT22;34807;51.456;7.244;2023-03-01T07:29:59;0.10;94.70
48998;DHT22;34807;51.456;7.244;2023-03-01T07:32:24;0.10;94.70
48998;DHT22;34807;51.456;7.244;2023-03-01T07:34:50;0.10;94.70
48998;DHT22;34807;51.456;7.244;2023-03-01T07:37:16;0.10;94.70
48998;DHT22;34807;51.456;7.244;2023-03-01T07:39:42;0.20;94.70
48998;DHT22;34807;51.456;7.244;2023-03-01T07:42:07;0.20;94.70
48998;DHT22;34807;51.456;7.244;2023-03-01T07:44:33;0.20;94.70
48998;DHT22;34807;51.456;7.244;2023-03-01T07:46:59;0.20;94.70
48998;DHT22;34807;51.456;7.244;2023-03-01T07:49:25;0.20;94.70
48998;DHT22;34807;51.456;7.244;2023-03-01T07:51:51;0.20;94.70
48998;DHT22;34807;51.456;7.244;2023-03-01T07:54:17;0.20;94.60
48998;DHT22;34807;51.456;7.244;2023-03-01T07:56:43;0.20;94.70
48998;DHT22;34807;51.456;7.244;2023-03-01T07:59:09;0.30;94.70
48998;DHT22;34807;51.456;7.244;2023-03-01T08:01:34;0.30;94.70
48998;DHT22;34807;51.456;7.244;2023-03-01T08:04:00;0.30;94.70
48998;DHT22;34807;51.456;7.244;2023-03-01T08:06:27;0.30;94.60
48998;DHT22;34807;51.456;7.244;2023-03-01T08:08:52;0.30;94.70
48998;DHT22;34807;51.456;7.244;2023-03-01T08:11:20;0.40;94.60
48998;DHT22;34807;51.456;7.244;2023-03-01T08:13:47;0.40;94.60
48998;DHT22;34807;51.456;7.244;2023-03-01T08:16:13;0.40;94.60
48998;DHT22;34807;51.456;7.244;2023-03-01T08:18:39;0.40;94.60
48998;DHT22;34807;51.456;7.244;2023-03-01T08:21:06;0.40;94.60
48998;DHT22;34807;51.456;7.244;2023-03-01T08:23:32;0.40;94.60
48998;DHT22;34807;51.456;7.244;2023-03-01T08:26:31;0.50;94.60
48998;DHT22;34807;51.456;7.244;2023-03-01T08:28:49;0.50;94.60
48998;DHT22;34807;51.456;7.244;2023-03-01T08:31:20;0.50;94.60
48998;DHT22;34807;51.456;7.244;2023-03-01T08:33:46;0.60;94.60
48998;DHT22;34807;51.456;7.244;2023-03-01T08:36:20;0.60;94.50
48998;DHT22;34807;51.456;7.244;2023-03-01T08:38:46;0.60;94.50
48998;DHT22;34807;51.456;7.244;2023-03-01T08:41:11;0.70;94.50
48998;DHT22;34807;51.456;7.244;2023-03-01T08:43:37;0.60;94.50
48998;DHT22;34807;51.456;7.244;2023-03-01T08:46:02;0.70;94.60
48998;DHT22;34807;51.456;7.244;2023-03-01T08:48:28;0.70;94.60
48998;DHT22;34807;51.456;7.244;2023-03-01T08:50:54;0.80;94.70
48998;DHT22;34807;51.456;7.244;2023-03-01T08:53:20;0.80;94.60
48998;DHT22;34807;51.456;7.244;2023-03-01T08:55:45;0.90;94.50
48998;DHT22;34807;51.456;7.244;2023-03-01T08:58:11;0.90;94.40
48998;DHT22;34807;51.456;7.244;2023-03-01T09:00:36;0.90;94.40
48998;DHT22;34807;51.456;7.244;2023-03-01T09:03:02;1.00;94.40
48998;DHT22;34807;51.456;7.244;2023-03-01T09:05:27;1.00;94.40
48998;DHT22;34807;51.456;7.244;2023-03-01T09:07:53;1.00;94.40
48998;DHT22;34807;51.456;7.244;2023-03-01T09:10:18;1.10;94.40
48998;DHT22;34807;51.456;7.244;2023-03-01T09:12:44;1.10;94.40
48998;DHT22;34807;51.456;7.244;2023-03-01T09:15:09;1.20;94.40
48998;DHT22;34807;51.456;7.244;2023-03-01T09:17:35;1.20;94.30
48998;DHT22;34807;51.456;7.244;2023-03-01T09:20:00;1.20;94.40
48998;DHT22;34807;51.456;7.244;2023-03-01T09:22:26;1.30;94.30
48998;DHT22;34807;51.456;7.244;2023-03-01T09:24:51;1.30;94.50
48998;DHT22;34807;51.456;7.244;2023-03-01T09:27:17;1.30;94.30
48998;DHT22;34807;51.456;7.244;2023-03-01T09:29:44;1.30;94.30
48998;DHT22;34807;51.456;7.244;2023-03-01T09:32:09;1.40;94.40
48998;DHT22;34807;51.456;7.244;2023-03-01T09:34:35;1.40;94.30
48998;DHT22;34807;51.456;7.244;2023-03-01T09:37:23;1.40;94.30
48998;DHT22;34807;51.456;7.244;2023-03-01T09:39:49;1.50;94.30
48998;DHT22;34807;51.456;7.244;2023-03-01T09:42:14;1.50;94.40
48998;DHT22;34807;51.456;7.244;2023-03-01T09:44:48;1.50;94.40
48998;DHT22;34807;51.456;7.244;2023-03-01T09:47:18;1.50;94.40
48998;DHT22;34807;51.456;7.244;2023-03-01T09:49:45;1.50;94.40
48998;DHT22;34807;51.456;7.244;2023-03-01T09:54:57;1.60;94.50
48998;DHT22;34807;51.456;7.244;2023-03-01T09:57:28;1.60;94.40
48998;DHT22;34807;51.456;7.244;2023-03-01T10:02:28;1.60;94.30
48998;DHT22;34807;51.456;7.244;2023-03-01T10:05:04;1.60;94.30
48998;DHT22;34807;51.456;7.244;2023-03-01T10:10:04;1.60;94.40
48998;DHT22;34807;51.456;7.244;2023-03-01T10:12:35;1.70;94.50
48998;DHT22;34807;51.456;7.244;2023-03-01T10:15:10;1.60;94.50
48998;DHT22;34807;51.456;7.244;2023-03-01T10:22:37;1.70;94.60
48998;DHT22;34807;51.456;7.244;2023-03-01T10:25:03;1.70;94.60
48998;DHT22;34807;51.456;7.244;2023-03-01T10:27:51;1.70;94.60
48998;DHT22;34807;51.456;7.244;2023-03-01T10:32:59;1.70;94.60
48998;DHT22;34807;51.456;7.244;2023-03-01T10:35:26;1.80;94.70
48998;DHT22;34807;51.456;7.244;2023-03-01T10:38:02;1.80;94.70
48998;DHT22;34807;51.456;7.244;2023-03-01T10:40:27;1.80;94.70
48998;DHT22;34807;51.456;7.244;2023-03-01T10:42:53;1.80;94.70
48998;DHT22;34807;51.456;7.244;2023-03-01T10:47:44;1.90;94.70
48998;DHT22;34807;51.456;7.244;2023-03-01T10:50:27;1.90;94.70
48998;DHT22;34807;51.456;7.244;2023-03-01T10:52:58;1.90;94.70
48998;DHT22;34807;51.456;7.244;2023-03-01T10:55:42;2.00;94.70
48998;DHT22;34807;51.456;7.244;2023-03-01T11:00:33;2.00;94.80
48998;DHT22;34807;51.456;7.244;2023-03-01T11:05:24;2.10;94.80
48998;DHT22;34807;51.456;7.244;2023-03-01T11:07:54;2.20;94.80
48998;DHT22;34807;51.456;7.244;2023-03-01T11:12:47;2.30;94.70
48998;DHT22;34807;51.456;7.244;2023-03-01T11:15:30;2.40;94.70
48998;DHT22;34807;51.456;7.244;2023-03-01T11:17:56;2.40;94.60
48998;DHT22;34807;51.456;7.244;2023-03-01T11:20:26;2.50;94.50
48998;DHT22;34807;51.456;7.244;2023-03-01T11:22:53;2.60;94.40
48998;DHT22;34807;51.456;7.244;2023-03-01T11:25:19;2.60;94.30
48998;DHT22;34807;51.456;7.244;2023-03-01T11:27:45;2.70;94.30
48998;DHT22;34807;51.456;7.244;2023-03-01T11:30:24;2.80;94.30
48998;DHT22;34807;51.456;7.244;2023-03-01T11:32:58;2.90;94.20
48998;DHT22;34807;51.456;7.244;2023-03-01T11:35:27;2.90;94.50
48998;DHT22;34807;51.456;7.244;2023-03-01T11:37:55;3.00;94.10
48998;DHT22;34807;51.456;7.244;2023-03-01T12:50:20;5.00;93.40
48998;DHT22;34807;51.456;7.244;2023-03-01T12:53:01;5.00;93.20
48998;DHT22;34807;51.456;7.244;2023-03-01T13:10:29;5.40;94.60
48998;DHT22;34807;51.456;7.244;2023-03-01T13:19:05;5.50;94.40
48998;DHT22;34807;51.456;7.244;2023-03-01T13:21:56;5.50;93.70
48998;DHT22;34807;51.456;7.244;2023-03-01T13:27:22;5.60;95.30
48998;DHT22;34807;51.456;7.244;2023-03-01T13:29:53;5.60;95.30
48998;DHT22;34807;51.456;7.244;2023-03-01T13:32:33;5.70;95.10
48998;DHT22;34807;51.456;7.244;2023-03-01T13:37:57;5.70;94.30
48998;DHT22;34807;51.456;7.244;2023-03-01T13:40:59;5.70;94.70
48998;DHT22;34807;51.456;7.244;2023-03-01T13:43:38;5.80;94.50
48998;DHT22;34807;51.456;7.244;2023-03-01T13:49:14;6.00;93.10
48998;DHT22;34807;51.456;7.244;2023-03-01T13:51:56;6.10;93.00
48998;DHT22;34807;51.456;7.244;2023-03-01T13:54:48;6.20;91.80
48998;DHT22;34807;51.456;7.244;2023-03-01T13:57:18;6.50;91.90
48998;DHT22;34807;51.456;7.244;2023-03-01T13:59:46;6.40;92.20
48998;DHT22;34807;51.456;7.244;2023-03-01T14:08:44;6.20;94.10
48998;DHT22;34807;51.456;7.244;2023-03-01T14:19:36;6.20;94.00
48998;DHT22;34807;51.456;7.244;2023-03-01T14:30:27;6.20;95.20
48998;DHT22;34807;51.456;7.244;2023-03-01T14:33:18;6.10;95.30
48998;DHT22;34807;51.456;7.244;2023-03-01T14:42:11;6.10;95.70
48998;DHT22;34807;51.456;7.244;2023-03-01T14:50:56;6.20;96.20
48998;DHT22;34807;51.456;7.244;2023-03-01T14:53:31;6.10;96.40
48998;DHT22;34807;51.456;7.244;2023-03-01T14:55:59;6.20;96.50
48998;DHT22;34807;51.456;7.244;2023-03-01T15:01:34;6.10;96.70
48998;DHT22;34807;51.456;7.244;2023-03-01T15:06:59;6.10;96.80
48998;DHT22;34807;51.456;7.244;2023-03-01T15:09:30;6.10;96.70
48998;DHT22;34807;51.456;7.244;2023-03-01T15:11:57;6.10;96.30
48998;DHT22;34807;51.456;7.244;2023-03-01T15:23:34;6.00;96.80
48998;DHT22;34807;51.456;7.244;2023-03-01T15:28:50;6.00;96.40
48998;DHT22;34807;51.456;7.244;2023-03-01T15:35:00;5.90;96.50
48998;DHT22;34807;51.456;7.244;2023-03-01T15:46:16;5.80;96.10
48998;DHT22;34807;51.456;7.244;2023-03-01T15:48:46;5.70;95.70
48998;DHT22;34807;51.456;7.244;2023-03-01T15:51:22;5.70;95.70
48998;DHT22;34807;51.456;7.244;2023-03-01T15:54:10;5.70;95.80
48998;DHT22;34807;51.456;7.244;2023-03-01T15:59:55;5.60;96.00
48998;DHT22;34807;51.456;7.244;2023-03-01T16:05:29;5.50;96.00
48998;DHT22;34807;51.456;7.244;2023-03-01T16:08:14;5.50;96.00
48998;DHT22;34807;51.456;7.244;2023-03-01T16:13:48;5.40;95.90
48998;DHT22;34807;51.456;7.244;2023-03-01T16:19:26;5.40;96.10
48998;DHT22;34807;51.456;7.244;2023-03-01T16:21:57;5.30;96.20
48998;DHT22;34807;51.456;7.244;2023-03-01T16:24:32;5.30;96.10
48998;DHT22;34807;51.456;7.244;2023-03-01T16:27:16;5.30;96.10
48998;DHT22;34807;51.456;7.244;2023-03-01T16:32:42;5.20;95.90
48998;DHT22;34807;51.456;7.244;2023-03-01T16:35:09;5.20;96.00
48998;DHT22;34807;51.456;7.244;2023-03-01T16:37:40;5.10;96.00
48998;DHT22;34807;51.456;7.244;2023-03-01T16:40:49;5.10;96.00
48998;DHT22;34807;51.456;7.244;2023-03-01T16:43:01;5.10;96.10
48998;DHT22;34807;51.456;7.244;2023-03-01T16:45:39;5.00;96.20
48998;DHT22;34807;51.456;7.244;2023-03-01T16:48:05;5.00;96.30
48998;DHT22;34807;51.456;7.244;2023-03-01T16:53:52;4.90;96.20
48998;DHT22;34807;51.456;7.244;2023-03-01T16:56:18;4.90;96.30
48998;DHT22;34807;51.456;7.244;2023-03-01T16:58:50;4.90;96.30
48998;DHT22;34807;51.456;7.244;2023-03-01T17:01:43;4.90;96.30
48998;DHT22;34807;51.456;7.244;2023-03-01T17:10:15;4.70;96.30
48998;DHT22;34807;51.456;7.244;2023-03-01T17:12:41;4.70;96.30
48998;DHT22;34807;51.456;7.244;2023-03-01T17:15:24;4.70;96.20
48998;DHT22;34807;51.456;7.244;2023-03-01T17:18:02;4.60;96.20
48998;DHT22;34807;51.456;7.244;2023-03-01T17:20:33;4.60;96.20
48998;DHT22;34807;51.456;7.244;2023-03-01T17:23:20;4.60;96.20
48998;DHT22;34807;51.456;7.244;2023-03-01T17:28:38;4.50;96.10
48998;DHT22;34807;51.456;7.244;2023-03-01T17:31:12;4.50;96.10
48998;DHT22;34807;51.456;7.244;2023-03-01T17:34:02;4.40;96.20
48998;DHT22;34807;51.456;7.244;2023-03-01T17:36:43;4.40;96.20
48998;DHT22;34807;51.456;7.244;2023-03-01T17:39:12;4.40;96.20
48998;DHT22;34807;51.456;7.244;2023-03-01T17:41:51;4.30;96.00
48998;DHT22;34807;51.456;7.244;2023-03-01T17:44:16;4.30;96.10
48998;DHT22;34807;51.456;7.244;2023-03-01T17:50:12;4.20;96.00
48998;DHT22;34807;51.456;7.244;2023-03-01T17:58:41;4.10;95.90
48998;DHT22;34807;51.456;7.244;2023-03-01T18:01:10;4.10;95.90
48998;DHT22;34807;51.456;7.244;2023-03-01T18:03:36;4.00;96.00
48998;DHT22;34807;51.456;7.244;2023-03-01T18:06:08;4.00;96.00
48998;DHT22;34807;51.456;7.244;2023-03-01T18:08:34;4.00;96.00
48998;DHT22;34807;51.456;7.244;2023-03-01T18:11:00;3.90;96.10
48998;DHT22;34807;51.456;7.244;2023-03-01T18:13:25;3.90;96.10
48998;DHT22;34807;51.456;7.244;2023-03-01T18:15:51;3.90;96.00
48998;DHT22;34807;51.456;7.244;2023-03-01T18:18:16;3.90;96.10
48998;DHT22;34807;51.456;7.244;2023-03-01T18:20:42;3.80;96.00
48998;DHT22;34807;51.456;7.244;2023-03-01T18:23:07;3.80;95.90
48998;DHT22;34807;51.456;7.244;2023-03-01T18:25:33;3.80;96.00
48998;DHT22;34807;51.456;7.244;2023-03-01T18:27:58;3.70;96.00
48998;DHT22;34807;51.456;7.244;2023-03-01T18:30:25;3.70;96.00
48998;DHT22;34807;51.456;7.244;2023-03-01T18:32:51;3.70;96.00
48998;DHT22;34807;51.456;7.244;2023-03-01T18:35:21;3.70;96.10
48998;DHT22;34807;51.456;7.244;2023-03-01T18:37:47;3.70;96.10
48998;DHT22;34807;51.456;7.244;2023-03-01T18:40:13;3.60;95.90
48998;DHT22;34807;51.456;7.244;2023-03-01T18:42:39;3.60;96.10
48998;DHT22;34807;51.456;7.244;2023-03-01T18:45:05;3.60;95.90
48998;DHT22;34807;51.456;7.244;2023-03-01T18:47:30;3.60;96.10
48998;DHT22;34807;51.456;7.244;2023-03-01T18:49:56;3.50;96.00
48998;DHT22;34807;51.456;7.244;2023-03-01T18:52:21;3.50;96.00
48998;DHT22;34807;51.456;7.244;2023-03-01T18:54:47;3.60;96.10
48998;DHT22;34807;51.456;7.244;2023-03-01T18:57:12;3.50;96.10
48998;DHT22;34807;51.456;7.244;2023-03-01T18:59:38;3.50;96.00
48998;DHT22;34807;51.456;7.244;2023-03-01T19:02:03;3.50;96.10
48998;DHT22;34807;51.456;7.244;2023-03-01T19:04:29;3.40;96.10
48998;DHT22;34807;51.456;7.244;2023-03-01T19:06:54;3.40;96.00
48998;DHT22;34807;51.456;7.244;2023-03-01T19:09:20;3.40;96.00
48998;DHT22;34807;51.456;7.244;2023-03-01T19:11:45;3.40;96.10
48998;DHT22;34807;51.456;7.244;2023-03-01T19:14:11;3.40;96.10
48998;DHT22;34807;51.456;7.244;2023-03-01T19:16:36;3.40;96.10
48998;DHT22;34807;51.456;7.244;2023-03-01T19:19:03;3.40;96.10
48998;DHT22;34807;51.456;7.244;2023-03-01T19:21:29;3.30;96.10
48998;DHT22;34807;51.456;7.244;2023-03-01T19:23:55;3.30;96.10
48998;DHT22;34807;51.456;7.244;2023-03-01T19:26:22;3.30;96.10
48998;DHT22;34807;51.456;7.244;2023-03-01T19:28:48;3.30;96.20
48998;DHT22;34807;51.456;7.244;2023-03-01T19:31:18;3.20;96.20
48998;DHT22;34807;51.456;7.244;2023-03-01T19:33:44;3.20;96.20
48998;DHT22;34807;51.456;7.244;2023-03-01T19:36:10;3.20;96.10
48998;DHT22;34807;51.456;7.244;2023-03-01T19:38:36;3.20;96.10
48998;DHT22;34807;51.456;7.244;2023-03-01T19:41:03;3.20;96.10
48998;DHT22;34807;51.456;7.244;2023-03-01T19:43:29;3.20;96.20
48998;DHT22;34807;51.456;7.244;2023-03-01T19:45:55;3.10;96.10
48998;DHT22;34807;51.456;7.244;2023-03-01T19:48:20;3.10;96.10
48998;DHT22;34807;51.456;7.244;2023-03-01T19:50:46;3.10;96.10
48998;DHT22;34807;51.456;7.244;2023-03-01T19:53:12;3.10;96.20
48998;DHT22;34807;51.456;7.244;2023-03-01T19:55:38;3.10;96.20